createdAt,value
2022-10-18T00:02:20.256Z,95.30
2022-10-18T00:04:47.462Z,101.03
2022-10-18T00:07:14.348Z,98.55
2022-10-18T00:09:41.070Z,96.63
2022-10-18T00:12:08.095Z,93.07
2022-10-18T00:14:34.807Z,96.25
2022-10-18T00:17:01.777Z,94.72
2022-10-18T00:19:29.370Z,99.00
2022-10-18T00:21:56.509Z,100.05
2022-10-18T00:24:23.163Z,96.20
2022-10-18T00:26:49.812Z,93.13
2022-10-18T00:29:16.582Z,93.75
2022-10-18T00:31:43.988Z,97.57
2022-10-18T00:34:13.812Z,101.13
2022-10-18T00:36:41.056Z,99.57
2022-10-18T00:39:09.443Z,91.93
2022-10-18T00:41:38.076Z,95.10
2022-10-18T00:44:12.566Z,94.57
2022-10-18T00:46:41.895Z,100.20
2022-10-18T00:49:32.074Z,101.95
2022-10-18T00:52:09.719Z,95.70
2022-10-18T00:54:42.962Z,96.28
2022-10-18T00:57:09.987Z,97.90
2022-10-18T00:59:37.516Z,95.13
2022-10-18T01:02:04.523Z,98.70
2022-10-18T01:04:31.208Z,97.63
2022-10-18T01:07:20.455Z,97.72
2022-10-18T01:10:13.437Z,95.18
2022-10-18T01:13:07.106Z,103.93
2022-10-18T01:15:42.578Z,104.25
2022-10-18T01:18:35.841Z,99.70
2022-10-18T01:21:02.418Z,98.30
2022-10-18T01:23:56.324Z,98.32
2022-10-18T01:26:36.931Z,95.90
2022-10-18T01:29:31.351Z,95.05
2022-10-18T01:32:03.251Z,94.00
2022-10-18T01:34:35.108Z,96.15
2022-10-18T01:37:05.098Z,96.18
2022-10-18T01:39:40.609Z,93.93
2022-10-18T01:42:12.111Z,98.80
2022-10-18T01:44:41.112Z,97.90
2022-10-18T01:47:10.807Z,95.15
2022-10-18T01:49:37.448Z,102.60
2022-10-18T01:52:04.222Z,94.07
2022-10-18T01:54:37.268Z,96.05
2022-10-18T01:57:16.981Z,99.65
2022-10-18T02:00:09.270Z,96.80
2022-10-18T02:02:38.674Z,114.10
2022-10-18T02:05:20.401Z,94.50
2022-10-18T02:08:24.166Z,94.45
2022-10-18T02:10:56.975Z,97.30
2022-10-18T02:13:29.008Z,93.55
2022-10-18T02:16:01.415Z,97.82
2022-10-18T02:18:35.176Z,98.55
2022-10-18T02:21:05.331Z,98.05
2022-10-18T02:23:33.785Z,95.38
2022-10-18T02:26:00.970Z,99.57
2022-10-18T02:28:27.726Z,96.75
2022-10-18T02:31:19.248Z,103.22
2022-10-18T02:34:10.773Z,95.07
2022-10-18T02:36:43.231Z,96.13
2022-10-18T02:39:16.020Z,97.07
2022-10-18T02:41:43.319Z,101.60
2022-10-18T02:44:11.041Z,97.70
2022-10-18T02:46:37.993Z,96.00
2022-10-18T02:49:04.643Z,98.35
2022-10-18T02:51:31.382Z,98.53
2022-10-18T02:53:58.017Z,97.47
2022-10-18T02:56:24.720Z,97.47
2022-10-18T02:58:51.341Z,99.57
2022-10-18T03:01:18.000Z,104.13
2022-10-18T03:03:44.668Z,95.28
2022-10-18T03:06:11.315Z,102.30
2022-10-18T03:08:38.492Z,98.57
2022-10-18T03:11:05.311Z,96.15
2022-10-18T03:13:33.991Z,97.63
2022-10-18T03:16:01.202Z,99.22
2022-10-18T03:18:27.954Z,106.13
2022-10-18T03:20:54.744Z,99.60
2022-10-18T03:23:21.599Z,97.68
2022-10-18T03:25:48.286Z,101.57
2022-10-18T03:28:14.931Z,102.85
2022-10-18T03:30:41.545Z,101.90
2022-10-18T03:33:08.191Z,103.75
2022-10-18T03:35:34.819Z,100.55
2022-10-18T03:38:01.440Z,103.32
2022-10-18T03:40:28.098Z,99.15
2022-10-18T03:42:54.764Z,102.60
2022-10-18T03:45:21.367Z,107.10
2022-10-18T03:47:47.965Z,102.85
2022-10-18T03:50:14.710Z,99.57
2022-10-18T03:52:41.412Z,99.45
2022-10-18T03:55:08.351Z,102.25
2022-10-18T03:57:35.134Z,100.25
2022-10-18T04:00:01.988Z,105.18
2022-10-18T04:02:28.704Z,108.85
2022-10-18T04:04:55.519Z,108.65
2022-10-18T04:07:22.159Z,105.45
2022-10-18T04:09:48.793Z,109.75
2022-10-18T04:12:15.474Z,98.10
2022-10-18T04:14:42.106Z,103.68
2022-10-18T04:17:08.764Z,98.07
2022-10-18T04:19:35.510Z,98.68
2022-10-18T04:22:02.187Z,101.63
2022-10-18T04:24:28.784Z,101.50
2022-10-18T04:26:55.497Z,97.47
2022-10-18T04:29:22.268Z,98.28
2022-10-18T04:31:48.930Z,96.93
2022-10-18T04:34:15.528Z,96.57
2022-10-18T04:36:42.146Z,101.88
2022-10-18T04:39:08.786Z,98.85
2022-10-18T04:41:36.146Z,102.60
2022-10-18T04:44:02.776Z,99.07
2022-10-18T04:46:29.536Z,99.38
2022-10-18T04:48:56.282Z,106.35
2022-10-18T04:51:23.059Z,105.95
2022-10-18T04:53:49.720Z,99.53
2022-10-18T04:56:16.574Z,100.50
2022-10-18T04:58:43.230Z,103.88
2022-10-18T05:01:09.882Z,97.75
2022-10-18T05:03:36.662Z,98.95
2022-10-18T05:06:03.716Z,112.00
2022-10-18T05:08:32.149Z,98.28
2022-10-18T05:10:59.434Z,98.75
2022-10-18T05:13:26.669Z,102.00
2022-10-18T05:15:53.327Z,100.53
2022-10-18T05:18:20.079Z,99.03
2022-10-18T05:20:47.101Z,103.57
2022-10-18T05:23:13.739Z,97.65
2022-10-18T05:25:41.766Z,99.43
2022-10-18T05:28:15.581Z,99.30
2022-10-18T05:30:47.842Z,94.78
2022-10-18T05:33:14.512Z,98.45
2022-10-18T05:35:41.207Z,121.25
2022-10-18T05:38:07.916Z,96.25
2022-10-18T05:40:34.652Z,98.28
2022-10-18T05:43:01.290Z,98.53
2022-10-18T05:45:27.931Z,105.45
2022-10-18T05:47:54.974Z,97.78
2022-10-18T05:50:21.626Z,104.55
2022-10-18T05:52:48.279Z,108.80
2022-10-18T05:55:15.117Z,101.22
2022-10-18T05:57:41.780Z,102.07
2022-10-18T06:00:09.370Z,100.25
2022-10-18T06:02:36.095Z,98.90
2022-10-18T06:05:02.802Z,100.85
2022-10-18T06:07:29.680Z,101.63
2022-10-18T06:09:56.490Z,101.28
2022-10-18T06:12:23.123Z,99.55
2022-10-18T06:14:49.754Z,101.93
2022-10-18T06:17:16.388Z,99.35
2022-10-18T06:19:45.758Z,102.75
2022-10-18T06:22:12.954Z,106.93
2022-10-18T06:24:39.667Z,99.30
2022-10-18T06:27:09.200Z,99.32
2022-10-18T06:29:37.474Z,98.82
2022-10-18T06:32:04.774Z,99.03
2022-10-18T06:34:31.449Z,99.38
2022-10-18T06:36:58.803Z,110.70
2022-10-18T06:39:26.122Z,106.10
2022-10-18T06:41:52.924Z,99.80
2022-10-18T06:44:20.881Z,105.63
2022-10-18T06:46:48.770Z,105.38
2022-10-18T06:49:18.976Z,101.00
2022-10-18T06:51:46.185Z,95.88
2022-10-18T06:54:18.006Z,104.57
2022-10-18T06:56:45.314Z,102.60
2022-10-18T06:59:12.016Z,100.03
2022-10-18T07:01:38.849Z,96.10
2022-10-18T07:04:05.614Z,98.30
2022-10-18T07:06:32.290Z,100.88
2022-10-18T07:08:59.287Z,98.95
2022-10-18T07:11:26.843Z,97.25
2022-10-18T07:13:54.773Z,97.00
2022-10-18T07:16:21.728Z,108.05
2022-10-18T07:18:50.797Z,97.85
2022-10-18T07:21:20.909Z,97.90
2022-10-18T07:23:48.476Z,101.82
2022-10-18T07:26:30.571Z,99.63
2022-10-18T07:29:01.457Z,97.15
2022-10-18T07:31:29.366Z,97.85
2022-10-18T07:33:56.219Z,95.55
2022-10-18T07:36:24.417Z,99.50
2022-10-18T07:38:52.050Z,96.65
2022-10-18T07:41:19.167Z,99.05
2022-10-18T07:43:48.158Z,96.50
2022-10-18T07:46:15.703Z,97.70
2022-10-18T07:48:42.679Z,98.80
2022-10-18T07:51:10.080Z,97.03
2022-10-18T07:53:37.523Z,98.20
2022-10-18T07:56:09.380Z,98.32
2022-10-18T07:58:36.727Z,97.05
2022-10-18T08:01:05.732Z,99.18
2022-10-18T08:03:32.765Z,97.90
2022-10-18T08:05:59.411Z,97.95
2022-10-18T08:08:26.733Z,95.50
2022-10-18T08:10:53.598Z,98.05
2022-10-18T08:13:20.931Z,98.72
2022-10-18T08:15:47.858Z,103.57
2022-10-18T08:18:14.593Z,96.20
2022-10-18T08:20:45.654Z,96.80
2022-10-18T08:23:12.713Z,98.82
2022-10-18T08:25:39.441Z,96.80
2022-10-18T08:28:06.760Z,95.38
2022-10-18T08:30:34.973Z,100.72
2022-10-18T08:33:01.955Z,95.40
2022-10-18T08:35:28.648Z,98.05
2022-10-18T08:37:55.316Z,89.85
2022-10-18T08:40:21.961Z,93.43
2022-10-18T08:42:48.552Z,91.78
2022-10-18T08:45:30.072Z,93.78
2022-10-18T08:48:05.368Z,91.05
2022-10-18T08:50:36.787Z,89.43
2022-10-18T08:53:19.420Z,92.82
2022-10-18T08:56:06.087Z,90.60
2022-10-18T08:58:33.577Z,89.22
2022-10-18T09:01:24.339Z,91.35
2022-10-18T09:04:09.684Z,89.53
2022-10-18T09:06:46.814Z,90.05
2022-10-18T09:09:39.134Z,92.07
2022-10-18T09:12:14.143Z,90.75
2022-10-18T09:15:01.271Z,94.35
2022-10-18T09:17:48.083Z,89.15
2022-10-18T09:20:26.766Z,89.35
2022-10-18T09:23:15.389Z,90.28
2022-10-18T09:25:45.468Z,90.85
2022-10-18T09:28:37.106Z,92.57
2022-10-18T09:31:19.184Z,92.88
2022-10-18T09:33:50.450Z,89.45
2022-10-18T09:36:35.344Z,91.88
2022-10-18T09:39:18.985Z,91.35
2022-10-18T09:41:56.309Z,90.30
2022-10-18T09:44:30.151Z,89.22
2022-10-18T09:47:02.004Z,90.22
2022-10-18T09:49:37.235Z,88.05
2022-10-18T09:52:08.993Z,89.50
2022-10-18T09:54:43.640Z,92.47
2022-10-18T09:57:16.715Z,87.78
2022-10-18T09:59:48.259Z,88.30
2022-10-18T10:02:17.342Z,92.90
2022-10-18T10:04:44.064Z,89.03
2022-10-18T10:07:41.300Z,88.18
2022-10-18T10:10:19.841Z,83.93
2022-10-18T10:12:48.542Z,82.67
2022-10-18T10:15:22.528Z,81.13
2022-10-18T10:18:05.531Z,80.37
2022-10-18T10:20:56.572Z,79.90
2022-10-18T10:23:38.795Z,80.23
2022-10-18T10:26:25.144Z,80.73
2022-10-18T10:28:52.222Z,80.47
2022-10-18T10:31:24.883Z,80.20
2022-10-18T10:34:06.754Z,79.07
2022-10-18T10:36:35.046Z,80.57
2022-10-18T10:39:13.721Z,80.57
2022-10-18T10:41:41.349Z,83.70
2022-10-18T10:44:17.271Z,81.00
2022-10-18T10:46:44.517Z,81.30
2022-10-18T10:49:42.424Z,83.10
2022-10-18T10:52:28.924Z,82.23
2022-10-18T10:55:30.870Z,82.10
2022-10-18T10:57:49.745Z,85.87
2022-10-18T11:00:38.062Z,83.40
2022-10-18T11:03:27.242Z,85.60
2022-10-18T11:05:55.477Z,85.57
2022-10-18T11:08:43.577Z,83.55
2022-10-18T11:11:23.149Z,84.63
2022-10-18T11:14:13.531Z,85.05
2022-10-18T11:17:21.006Z,85.88
2022-10-18T11:20:12.464Z,85.55
2022-10-18T11:22:56.612Z,85.53
2022-10-18T11:25:34.170Z,85.70
2022-10-18T11:28:13.076Z,84.72
2022-10-18T11:31:02.786Z,85.25
2022-10-18T11:34:09.107Z,86.38
2022-10-18T11:36:54.574Z,86.55
2022-10-18T11:39:41.569Z,86.72
2022-10-18T11:42:16.607Z,86.50
2022-10-18T11:45:14.682Z,85.47
2022-10-18T11:47:59.900Z,85.03
2022-10-18T11:50:52.194Z,83.97
2022-10-18T11:53:33.693Z,83.30
2022-10-18T11:56:30.517Z,84.90
2022-10-18T11:59:14.001Z,82.67
2022-10-18T12:02:11.655Z,81.40
2022-10-18T12:04:59.785Z,81.63
2022-10-18T12:07:41.935Z,82.30
2022-10-18T12:10:22.017Z,81.17
2022-10-18T12:13:02.699Z,81.97
2022-10-18T12:15:33.544Z,81.10
2022-10-18T12:18:15.988Z,81.60
2022-10-18T12:20:48.155Z,81.83
2022-10-18T12:23:26.025Z,80.77
2022-10-18T12:26:00.740Z,78.60
2022-10-18T12:28:52.229Z,79.77
2022-10-18T12:31:33.929Z,79.40
2022-10-18T12:34:13.513Z,79.87
2022-10-18T12:40:09.764Z,81.17
2022-10-18T12:42:50.495Z,81.40
2022-10-18T12:45:33.334Z,82.37
2022-10-18T12:48:06.816Z,81.60
2022-10-18T12:50:37.094Z,81.90
2022-10-18T12:53:05.483Z,82.33
2022-10-18T12:55:38.728Z,82.40
2022-10-18T12:58:23.955Z,83.30
2022-10-18T13:00:51.487Z,82.90
2022-10-18T13:03:18.114Z,82.40
2022-10-18T13:05:53.542Z,82.70
2022-10-18T13:08:30.325Z,83.53
2022-10-18T13:11:11.915Z,82.90
2022-10-18T13:14:00.993Z,82.30
2022-10-18T13:16:44.496Z,82.80
2022-10-18T13:19:23.626Z,82.97
2022-10-18T13:22:05.634Z,85.43
2022-10-18T13:24:38.237Z,83.55
2022-10-18T13:27:24.571Z,83.43
2022-10-18T13:30:17.563Z,83.22
2022-10-18T13:33:14.458Z,82.60
2022-10-18T13:35:52.317Z,84.22
2022-10-18T13:38:47.273Z,85.43
2022-10-18T13:41:21.320Z,84.63
2022-10-18T13:44:10.434Z,86.18
2022-10-18T13:46:37.021Z,84.43
2022-10-18T13:49:40.747Z,85.78
2022-10-18T13:52:29.373Z,85.57
2022-10-18T13:55:33.553Z,84.93
2022-10-18T13:58:18.928Z,85.75
2022-10-18T14:01:07.249Z,88.32
2022-10-18T14:04:11.727Z,92.18
2022-10-18T14:06:45.962Z,86.22
2022-10-18T14:09:25.437Z,86.32
2022-10-18T14:12:20.576Z,86.45
2022-10-18T14:15:05.203Z,86.70
2022-10-18T14:17:44.550Z,85.82
2022-10-18T14:20:40.082Z,86.25
2022-10-18T14:23:31.193Z,86.20
2022-10-18T14:26:30.943Z,87.93
2022-10-18T14:29:05.853Z,87.40
2022-10-18T14:31:33.215Z,86.15
2022-10-18T14:34:00.956Z,85.55
2022-10-18T14:36:34.434Z,85.85
2022-10-18T14:39:04.305Z,98.10
2022-10-18T14:41:36.077Z,89.28
2022-10-18T14:44:16.735Z,87.60
2022-10-18T14:46:45.590Z,86.68
2022-10-18T14:49:13.346Z,85.75
2022-10-18T14:51:42.404Z,85.10
2022-10-18T14:54:18.462Z,85.97
2022-10-18T14:56:45.897Z,86.63
2022-10-18T14:59:26.794Z,86.18
2022-10-18T15:02:19.212Z,87.90
2022-10-18T15:04:47.290Z,86.25
2022-10-18T15:07:16.883Z,86.65
2022-10-18T15:09:44.607Z,93.63
2022-10-18T15:12:14.783Z,89.07
2022-10-18T15:14:42.428Z,86.88
2022-10-18T15:17:16.768Z,85.97
2022-10-18T15:20:05.893Z,86.78
2022-10-18T15:22:33.644Z,87.10
2022-10-18T15:25:06.668Z,87.82
2022-10-18T15:27:37.789Z,88.80
2022-10-18T15:30:14.637Z,86.03
2022-10-18T15:32:51.836Z,93.63
2022-10-18T15:35:29.266Z,89.53
2022-10-18T15:37:58.532Z,94.10
2022-10-18T15:40:30.403Z,87.45
2022-10-18T15:42:59.622Z,90.35
2022-10-18T15:45:27.424Z,92.65
2022-10-18T15:48:20.580Z,88.00
2022-10-18T15:50:51.829Z,89.28
2022-10-18T15:53:22.526Z,88.28
2022-10-18T15:55:50.103Z,88.72
2022-10-18T15:58:29.917Z,94.97
2022-10-18T16:00:59.220Z,88.57
2022-10-18T16:03:26.014Z,87.63
2022-10-18T16:05:59.749Z,87.32
2022-10-18T16:08:30.405Z,88.05
2022-10-18T16:10:58.782Z,87.40
2022-10-18T16:13:26.698Z,87.22
2022-10-18T16:15:55.702Z,88.28
2022-10-18T16:18:23.812Z,88.72
2022-10-18T16:20:50.525Z,87.75
2022-10-18T16:23:25.805Z,88.28
2022-10-18T16:25:52.893Z,90.68
2022-10-18T16:28:23.220Z,88.15
2022-10-18T16:31:07.983Z,90.03
2022-10-18T16:33:36.613Z,91.50
2022-10-18T16:36:04.714Z,88.32
2022-10-18T16:38:36.398Z,91.45
2022-10-18T16:41:07.825Z,89.80
2022-10-18T16:43:35.034Z,92.53
2022-10-18T16:46:03.158Z,89.43
2022-10-18T16:48:30.447Z,88.55
2022-10-18T16:50:57.616Z,88.82
2022-10-18T16:53:25.066Z,88.88
2022-10-18T16:56:00.463Z,90.57
2022-10-18T16:58:29.024Z,92.00
2022-10-18T17:00:55.983Z,91.45
2022-10-18T17:03:23.419Z,89.90
2022-10-18T17:05:50.219Z,90.95
2022-10-18T17:08:23.732Z,90.40
2022-10-18T17:10:55.311Z,94.20
2022-10-18T17:13:23.139Z,89.43
2022-10-18T17:15:50.790Z,91.18
2022-10-18T17:18:21.646Z,92.85
2022-10-18T17:20:48.916Z,90.00
2022-10-18T17:23:15.689Z,89.72
2022-10-18T17:25:57.752Z,95.00
2022-10-18T17:28:33.092Z,89.45
2022-10-18T17:30:59.779Z,97.20
2022-10-18T17:33:26.508Z,92.85
2022-10-18T17:35:53.165Z,95.90
2022-10-18T17:38:19.798Z,95.80
2022-10-18T17:40:46.449Z,93.70
2022-10-18T17:43:13.768Z,90.88
2022-10-18T17:45:53.959Z,93.07
2022-10-18T17:48:20.634Z,95.13
2022-10-18T17:50:47.315Z,92.70
2022-10-18T17:53:14.270Z,89.53
2022-10-18T17:55:40.899Z,90.82
2022-10-18T17:58:07.616Z,90.78
2022-10-18T18:00:34.352Z,94.60
2022-10-18T18:03:01.141Z,97.30
2022-10-18T18:05:32.765Z,92.75
2022-10-18T18:08:03.744Z,91.18
2022-10-18T18:10:32.754Z,91.53
2022-10-18T18:12:59.447Z,89.50
2022-10-18T18:15:26.148Z,90.03
2022-10-18T18:17:57.929Z,90.85
2022-10-18T18:20:25.789Z,90.10
2022-10-18T18:22:52.988Z,94.20
2022-10-18T18:25:19.832Z,93.15
2022-10-18T18:27:46.442Z,91.43
2022-10-18T18:30:14.365Z,95.78
2022-10-18T18:32:40.974Z,91.63
2022-10-18T18:35:07.816Z,108.45
2022-10-18T18:37:34.455Z,93.70
2022-10-18T18:40:01.131Z,101.22
2022-10-18T18:42:27.729Z,92.35
2022-10-18T18:44:54.361Z,95.60
2022-10-18T18:47:23.235Z,92.78
2022-10-18T18:49:51.426Z,93.63
2022-10-18T18:52:18.069Z,95.53
2022-10-18T18:54:45.005Z,91.63
2022-10-18T18:57:11.647Z,97.88
2022-10-18T18:59:38.309Z,90.65
2022-10-18T19:02:04.975Z,93.20
2022-10-18T19:04:31.649Z,93.55
2022-10-18T19:06:58.335Z,90.95
2022-10-18T19:09:27.116Z,91.47
2022-10-18T19:11:55.854Z,95.55
2022-10-18T19:14:24.717Z,94.03
2022-10-18T19:17:01.411Z,98.07
2022-10-18T19:19:30.485Z,93.00
2022-10-18T19:21:59.596Z,92.93
2022-10-18T19:24:28.782Z,94.80
2022-10-18T19:27:00.824Z,91.82
2022-10-18T19:29:34.953Z,91.20
2022-10-18T19:32:07.313Z,93.20
2022-10-18T19:34:34.812Z,96.07
2022-10-18T19:37:01.645Z,93.30
2022-10-18T19:39:33.608Z,97.60
2022-10-18T19:42:03.273Z,94.88
2022-10-18T19:44:32.065Z,91.65
2022-10-18T19:46:59.116Z,93.60
2022-10-18T19:49:26.179Z,92.68
2022-10-18T19:51:52.900Z,94.30
2022-10-18T19:54:19.520Z,91.72
2022-10-18T19:56:46.501Z,90.88
2022-10-18T19:59:14.764Z,99.50
2022-10-18T20:01:42.042Z,97.40
2022-10-18T20:04:09.917Z,92.85
2022-10-18T20:06:38.226Z,93.60
2022-10-18T20:09:06.261Z,96.03
2022-10-18T20:11:32.968Z,94.60
2022-10-18T20:13:59.769Z,95.55
2022-10-18T20:16:29.034Z,102.35
2022-10-18T20:19:01.334Z,94.43
2022-10-18T20:21:29.854Z,96.68
2022-10-18T20:23:56.851Z,98.78
2022-10-18T20:26:25.297Z,101.18
2022-10-18T20:28:57.217Z,95.72
2022-10-18T20:31:26.462Z,93.60
2022-10-18T20:33:55.652Z,94.55
2022-10-18T20:36:22.358Z,93.25
2022-10-18T20:38:49.104Z,95.82
2022-10-18T20:41:18.901Z,94.32
2022-10-18T20:43:51.324Z,97.18
2022-10-18T20:46:18.079Z,99.85
2022-10-18T20:48:44.722Z,97.47
2022-10-18T20:51:16.922Z,98.70
2022-10-18T20:53:43.837Z,108.30
2022-10-18T20:56:12.757Z,93.85
2022-10-18T20:58:40.842Z,100.68
2022-10-18T21:01:22.063Z,95.93
2022-10-18T21:03:50.481Z,96.55
2022-10-18T21:06:27.144Z,100.07
2022-10-18T21:08:58.921Z,101.50
2022-10-18T21:11:27.184Z,96.22
2022-10-18T21:14:00.012Z,95.57
2022-10-18T21:16:27.409Z,101.25
2022-10-18T21:18:54.786Z,95.63
2022-10-18T21:21:24.093Z,100.00
2022-10-18T21:23:51.838Z,95.18
2022-10-18T21:26:21.297Z,96.40
2022-10-18T21:28:50.391Z,96.80
2022-10-18T21:31:19.808Z,97.18
2022-10-18T21:33:47.384Z,99.28
2022-10-18T21:36:14.668Z,95.85
2022-10-18T21:38:45.673Z,95.38
2022-10-18T21:41:15.297Z,99.10
2022-10-18T21:43:44.899Z,96.32
2022-10-18T21:46:13.237Z,102.00
2022-10-18T21:48:43.467Z,96.35
2022-10-18T21:51:10.229Z,104.68
2022-10-18T21:53:37.090Z,103.53
2022-10-18T21:56:05.725Z,99.07
2022-10-18T21:58:32.615Z,103.60
2022-10-18T22:00:59.330Z,100.55
2022-10-18T22:03:26.093Z,105.50
2022-10-18T22:06:04.573Z,103.70
2022-10-18T22:08:31.242Z,105.32
2022-10-18T22:10:58.122Z,103.45
2022-10-18T22:13:24.828Z,102.95
2022-10-18T22:15:51.790Z,103.80
2022-10-18T22:18:18.716Z,107.13
2022-10-18T22:20:59.910Z,105.22
2022-10-18T22:23:41.967Z,106.15
2022-10-18T22:26:20.659Z,102.60
2022-10-18T22:28:47.978Z,106.35
2022-10-18T22:31:20.827Z,103.93
2022-10-18T22:33:52.287Z,103.93
2022-10-18T22:36:18.915Z,107.07
2022-10-18T22:38:45.546Z,106.72
2022-10-18T22:41:12.708Z,111.47
2022-10-18T22:43:39.426Z,111.18
2022-10-18T22:46:11.893Z,106.28
2022-10-18T22:48:38.793Z,102.10
2022-10-18T22:51:05.927Z,103.68
2022-10-18T22:53:33.443Z,108.20
2022-10-18T22:56:00.302Z,102.65
2022-10-18T22:58:27.105Z,119.68
2022-10-18T23:01:01.666Z,105.53
2022-10-18T23:03:28.538Z,107.03
2022-10-18T23:05:55.579Z,108.35
2022-10-18T23:08:22.284Z,106.13
2022-10-18T23:10:54.681Z,106.88
2022-10-18T23:13:22.130Z,102.13
2022-10-18T23:15:48.765Z,107.53
2022-10-18T23:18:15.497Z,102.45
2022-10-18T23:20:42.115Z,104.55
2022-10-18T23:23:08.748Z,109.47
2022-10-18T23:25:36.676Z,105.50
2022-10-18T23:28:04.645Z,101.70
2022-10-18T23:30:31.643Z,102.30
2022-10-18T23:32:58.314Z,104.95
2022-10-18T23:35:24.994Z,107.15
2022-10-18T23:37:52.624Z,105.47
2022-10-18T23:40:19.264Z,101.43
2022-10-18T23:42:46.234Z,101.80
2022-10-18T23:45:12.868Z,106.97
2022-10-18T23:47:39.485Z,104.38
2022-10-18T23:50:06.545Z,103.28
2022-10-18T23:52:33.182Z,103.30
2022-10-18T23:54:59.805Z,108.90
2022-10-18T23:57:26.435Z,103.20
2022-10-18T23:59:53.067Z,109.43
